Time;durP1;ratioP1;P1;durP2;ratioP2;P2;SDS_P1;SDS_P2;PMS_P1;PMS_P2;Temp;Humidity;BMP_temperature;BMP_pressure;BME280_temperature;BME280_humidity;BME280_pressure;Samples;Min_cycle;Max_cycle;Signal;HPM_P1;HPM_P2
2021/01/26 00:01:37;;;;;;;5.75;4.45;;;;;;;-0.11;82.74;96892.51;1705516;84;21046;-63
2021/01/26 00:04:05;;;;;;;5.42;4.20;;;;;;;-0.11;82.55;96889.87;1705490;84;21222;-62
2021/01/26 00:06:34;;;;;;;4.92;3.80;;;;;;;-0.13;82.35;96894.34;1705629;83;20935;-62
2021/01/26 00:09:02;;;;;;;5.47;4.25;;;;;;;-0.10;82.26;96902.59;1705560;83;20904;-62
2021/01/26 00:11:29;;;;;;;4.55;3.30;;;;;;;-0.10;82.18;96899.47;1705468;84;22041;-62
2021/01/26 00:13:57;;;;;;;4.65;3.80;;;;;;;-0.10;81.83;96899.47;1705490;84;21031;-62
2021/01/26 00:16:25;;;;;;;5.10;3.37;;;;;;;-0.10;81.68;96898.16;1705591;84;21385;-63
2021/01/26 00:18:52;;;;;;;4.35;3.20;;;;;;;-0.08;81.49;96905.55;1705494;84;20963;-63
2021/01/26 00:21:22;;;;;;;3.85;3.45;;;;;;;-0.07;81.14;96909.88;1705540;83;21460;-62
2021/01/26 00:23:50;;;;;;;6.50;4.45;;;;;;;-0.06;81.12;96923.47;1705430;84;21015;-64
2021/01/26 00:26:18;;;;;;;4.78;3.60;;;;;;;-0.07;80.98;96916.47;1705607;84;20940;-61
2021/01/26 00:28:46;;;;;;;3.83;3.30;;;;;;;-0.08;80.73;96922.70;1705546;83;21382;-62
2021/01/26 00:31:13;;;;;;;4.50;3.55;;;;;;;-0.08;80.71;96926.66;1705523;84;20908;-63
2021/01/26 00:33:41;;;;;;;4.42;3.77;;;;;;;-0.11;80.61;96926.81;1713998;83;21030;-63
2021/01/26 00:36:10;;;;;;;4.75;4.25;;;;;;;-0.11;80.60;96937.37;1731197;83;21022;-63
2021/01/26 00:38:37;;;;;;;5.37;4.67;;;;;;;-0.13;80.68;96941.85;1731203;83;20943;-63
2021/01/26 00:41:04;;;;;;;5.17;4.62;;;;;;;-0.14;80.84;96942.80;1731284;83;21438;-63
2021/01/26 00:43:33;;;;;;;4.47;3.70;;;;;;;-0.17;81.01;96941.63;1731019;82;21061;-62
2021/01/26 00:46:00;;;;;;;5.33;4.37;;;;;;;-0.16;81.28;96945.96;1731310;83;21022;-62
2021/01/26 00:48:28;;;;;;;5.05;4.53;;;;;;;-0.16;81.39;96949.92;1731183;83;21025;-63
2021/01/26 00:50:57;;;;;;;3.98;3.60;;;;;;;-0.17;81.55;96952.19;1731242;83;20943;-62
2021/01/26 00:53:24;;;;;;;4.97;3.87;;;;;;;-0.18;81.64;96951.79;1731192;83;21407;-63
2021/01/26 00:55:55;;;;;;;5.92;4.65;;;;;;;-0.19;81.65;96953.59;1730889;83;20978;-63
2021/01/26 00:58:23;;;;;;;6.35;4.75;;;;;;;-0.20;81.41;96969.49;1731231;83;20930;-62
2021/01/26 01:00:51;;;;;;;4.40;4.00;;;;;;;-0.20;81.36;96962.42;1731226;83;20986;-62
2021/01/26 01:03:21;;;;;;;6.40;4.35;;;;;;;-0.20;81.27;96960.26;1731167;83;20987;-63
2021/01/26 01:05:48;;;;;;;5.15;4.45;;;;;;;-0.17;81.32;96958.79;1731119;83;21357;-63
2021/01/26 01:08:17;;;;;;;6.75;5.00;;;;;;;-0.19;81.25;96965.91;1731146;83;20958;-63
2021/01/26 01:10:45;;;;;;;5.10;4.03;;;;;;;-0.18;81.29;96955.75;1731224;83;21340;-63
2021/01/26 01:13:12;;;;;;;5.30;4.10;;;;;;;-0.19;81.26;96965.91;1731131;83;20946;-63
2021/01/26 01:15:40;;;;;;;5.03;4.53;;;;;;;-0.18;81.43;96976.86;1731136;82;21013;-63
2021/01/26 01:18:08;;;;;;;4.83;4.12;;;;;;;-0.21;81.64;96973.05;1731214;83;22197;-62
2021/01/26 01:20:36;;;;;;;5.45;4.95;;;;;;;-0.20;82.05;96980.05;1731067;82;21061;-63
2021/01/26 01:23:04;;;;;;;4.78;4.22;;;;;;;-0.23;81.80;96975.77;1731180;83;20946;-63
2021/01/26 01:25:31;;;;;;;5.15;4.17;;;;;;;-0.26;81.87;96975.91;1731097;83;20978;-62
2021/01/26 01:28:00;;;;;;;4.90;4.40;;;;;;;-0.22;82.12;96985.84;1731203;83;20986;-62
2021/01/26 01:30:30;;;;;;;6.17;5.25;;;;;;;-0.25;81.83;96989.51;1731124;83;21390;-62
2021/01/26 01:32:57;;;;;;;5.80;4.62;;;;;;;-0.27;81.77;96986.55;1731261;83;21379;-62
2021/01/26 01:35:26;;;;;;;5.40;4.47;;;;;;;-0.29;81.52;96996.33;1717417;82;20899;-62
2021/01/26 01:37:54;;;;;;;5.45;4.87;;;;;;;-0.27;81.51;96997.09;1716695;83;20934;-62
2021/01/26 01:40:31;;;;;;;5.95;4.83;;;;;;;-0.30;81.20;96999.44;1716708;83;20990;-62
2021/01/26 01:42:59;;;;;;;5.37;4.83;;;;;;;-0.27;81.09;96997.09;1716766;83;22243;-62
2021/01/26 01:45:27;;;;;;;7.85;5.33;;;;;;;-0.30;81.01;96991.97;1716571;83;20967;-63
2021/01/26 01:48:16;;;;;;;7.87;5.53;;;;;;;-0.33;81.00;97001.34;1716727;83;20931;-62
2021/01/26 01:50:54;;;;;;;6.65;5.95;;;;;;;-0.32;81.19;97002.59;1716672;83;20930;-62
2021/01/26 01:53:29;;;;;;;6.47;5.08;;;;;;;-0.33;81.15;96997.39;1716741;83;20990;-63
2021/01/26 01:56:02;;;;;;;7.70;5.00;;;;;;;-0.35;81.22;97005.85;1716671;83;21213;-63
2021/01/26 01:58:34;;;;;;;7.00;5.23;;;;;;;-0.37;81.47;96997.53;1716941;83;20990;-62
2021/01/26 02:01:06;;;;;;;5.20;4.67;;;;;;;-0.36;81.48;97003.69;1716716;83;21238;-63
2021/01/26 02:03:37;;;;;;;8.68;6.00;;;;;;;-0.36;81.65;97008.96;1716640;83;20899;-63
2021/01/26 02:06:04;;;;;;;6.75;5.45;;;;;;;-0.35;81.76;97014.61;1716746;83;20935;-63
2021/01/26 02:09:08;;;;;;;7.15;5.62;;;;;;;-0.33;81.68;97016.73;1716799;83;22287;-63
2021/01/26 02:11:36;;;;;;;5.90;4.65;;;;;;;-0.33;81.81;97016.73;1716753;83;20987;-62
2021/01/26 02:14:05;;;;;;;5.92;5.22;;;;;;;-0.35;82.09;97009.81;1716744;83;20939;-62
2021/01/26 02:17:15;;;;;;;6.83;6.12;;;;;;;-0.34;82.17;97012.84;1716755;83;21002;-62
2021/01/26 02:20:33;;;;;;;6.60;6.00;;;;;;;-0.35;82.34;97016.41;1716845;83;20927;-63
2021/01/26 02:23:28;;;;;;;5.40;4.60;;;;;;;-0.34;82.48;97020.29;1715661;83;21361;-62
2021/01/26 02:26:54;;;;;;;5.95;5.35;;;;;;;-0.35;82.57;97021.68;1716724;83;20958;-63
2021/01/26 02:29:46;;;;;;;6.83;5.42;;;;;;;-0.37;82.67;97025.23;1716978;83;21034;-62
2021/01/26 02:32:19;;;;;;;7.03;5.78;;;;;;;-0.37;82.84;97022.59;1716855;83;20955;-62
2021/01/26 02:35:29;;;;;;;6.03;4.78;;;;;;;-0.38;82.77;97033.22;1716890;83;20947;-62
2021/01/26 02:38:45;;;;;;;6.83;5.42;;;;;;;-0.34;82.82;97030.00;1837062;78;28333;-62
2021/01/26 02:41:26;;;;;;;8.10;6.33;;;;;;;-0.42;82.73;97027.25;1809864;79;20928;-62
2021/01/26 02:44:29;;;;;;;7.30;6.22;;;;;;;-0.41;82.66;97028.09;1809611;79;21194;-62
2021/01/26 02:47:19;;;;;;;9.93;5.87;;;;;;;-0.39;82.79;97028.42;1809536;79;20916;-62
2021/01/26 02:50:02;;;;;;;8.18;6.42;;;;;;;-0.39;82.63;97031.06;1809626;79;21008;-63
2021/01/26 02:52:44;;;;;;;6.80;5.65;;;;;;;-0.40;82.58;97029.34;1809612;79;20987;-62
2021/01/26 02:55:35;;;;;;;7.25;6.15;;;;;;;-0.42;82.62;97033.84;1809579;79;21019;-62
2021/01/26 02:58:17;;;;;;;7.87;5.92;;;;;;;-0.39;82.56;97036.81;1809613;79;21189;-63
2021/01/26 03:00:46;;;;;;;;;;;;;;;-0.41;82.52;97039.52;1812299;79;21007;-63
2021/01/26 03:03:33;;;;;;;7.03;6.10;;;;;;;-0.40;82.60;97046.48;1809666;79;20129;-63
2021/01/26 03:06:06;;;;;;;8.15;7.12;;;;;;;-0.42;82.61;97041.75;1809504;79;20964;-62
2021/01/26 03:09:09;;;;;;;9.23;7.60;;;;;;;-0.42;82.61;97051.46;1809601;79;20909;-63
2021/01/26 03:11:57;;;;;;;7.62;5.55;;;;;;;-0.42;82.52;97044.39;1809690;79;21346;-62
2021/01/26 03:14:51;;;;;;;9.65;7.00;;;;;;;-0.41;82.58;97048.75;1809561;79;20925;-62
2021/01/26 03:17:26;;;;;;;7.40;6.35;;;;;;;-0.41;82.70;97048.75;1809480;79;20964;-61
2021/01/26 03:19:54;;;;;;;8.35;6.62;;;;;;;-0.43;82.75;97053.22;1809493;79;20869;-62
2021/01/26 03:22:24;;;;;;;8.05;6.45;;;;;;;-0.41;82.63;97056.66;1809613;79;21319;-62
2021/01/26 03:24:54;;;;;;;8.10;6.58;;;;;;;-0.42;82.38;97055.42;1809589;79;21252;-62
2021/01/26 03:27:28;;;;;;;7.37;6.47;;;;;;;-0.43;82.20;97057.18;1809539;79;21386;-62
2021/01/26 03:29:58;;;;;;;7.42;6.30;;;;;;;-0.42;82.08;97061.54;1809514;79;20900;-62
2021/01/26 03:32:34;;;;;;;9.43;7.87;;;;;;;-0.41;81.97;97062.39;1809548;79;20916;-62
2021/01/26 03:35:02;;;;;;;9.78;7.58;;;;;;;-0.42;82.01;97069.45;1809606;79;20923;-61
2021/01/26 03:37:30;;;;;;;9.10;8.03;;;;;;;-0.43;81.99;97073.01;1802961;79;21398;-62
2021/01/26 03:39:57;;;;;;;7.97;7.20;;;;;;;-0.44;82.11;97067.36;1776483;79;21023;-63
2021/01/26 03:42:25;;;;;;;9.45;7.03;;;;;;;-0.44;82.06;97067.36;1798568;79;20925;-63
2021/01/26 03:44:53;;;;;;;7.62;6.20;;;;;;;-0.46;82.05;97074.94;1798513;79;20865;-62
2021/01/26 03:47:30;;;;;;;7.37;6.33;;;;;;;-0.48;82.06;97076.33;1798412;79;20913;-63
2021/01/26 03:50:16;;;;;;;7.85;6.67;;;;;;;-0.47;82.09;97079.81;1776665;79;22249;-64
2021/01/26 03:53:35;;;;;;;7.50;6.65;;;;;;;-0.48;81.94;97082.08;1797897;79;21342;-64
2021/01/26 03:56:31;;;;;;;7.75;5.90;;;;;;;-0.49;81.92;97082.55;1797951;79;20870;-62
2021/01/26 03:59:10;;;;;;;8.18;6.70;;;;;;;-0.50;81.71;97087.42;1797916;79;20972;-62
2021/01/26 04:01:44;;;;;;;6.85;6.15;;;;;;;-0.52;81.29;97095.88;1797737;79;21055;-62
2021/01/26 04:04:32;;;;;;;7.35;6.03;;;;;;;-0.54;80.79;97092.44;1797961;79;21358;-62
2021/01/26 04:07:03;;;;;;;7.62;5.97;;;;;;;-0.55;80.72;97094.70;1785154;79;21012;-61
2021/01/26 04:09:35;;;;;;;7.53;6.20;;;;;;;-0.60;80.37;97101.94;1797921;79;20996;-62
2021/01/26 04:12:10;;;;;;;7.00;5.78;;;;;;;-0.63;79.85;97100.77;1797847;79;20913;-61
2021/01/26 04:15:13;;;;;;;6.72;5.22;;;;;;;-0.66;79.47;97099.58;1797972;79;21027;-63
2021/01/26 04:17:44;;;;;;;7.05;5.08;;;;;;;-0.70;79.10;97105.94;1797534;79;21375;-63
2021/01/26 04:20:16;;;;;;;7.67;5.55;;;;;;;-0.75;78.99;97105.66;1797882;79;20929;-62
2021/01/26 04:22:43;;;;;;;5.83;4.75;;;;;;;-0.80;78.89;97105.02;1797979;79;21343;-62
2021/01/26 04:25:34;;;;;;;6.65;5.50;;;;;;;-0.85;78.51;97109.66;1797898;79;20976;-62
2021/01/26 04:28:07;;;;;;;6.50;5.17;;;;;;;-0.89;78.28;97115.97;1798018;79;21339;-62
2021/01/26 04:30:35;;;;;;;5.33;4.62;;;;;;;-0.94;78.16;97128.50;1797909;79;21188;-62
2021/01/26 04:33:06;;;;;;;5.83;5.12;;;;;;;-0.99;78.18;97129.17;1797818;79;20897;-62
2021/01/26 04:35:34;;;;;;;7.10;5.78;;;;;;;-1.01;78.44;97131.88;1797939;79;20909;-63
2021/01/26 04:38:02;;;;;;;7.50;6.12;;;;;;;-1.03;78.65;97136.80;1797798;79;20976;-62
2021/01/26 04:40:29;;;;;;;6.08;4.83;;;;;;;-1.05;78.77;97138.66;1797974;79;21379;-61
2021/01/26 04:43:24;;;;;;;6.80;5.22;;;;;;;-1.10;78.60;97137.06;1797822;79;23603;-61
2021/01/26 04:46:14;;;;;;;5.87;4.85;;;;;;;-1.16;78.39;97114.08;1798028;79;20965;-61
2021/01/26 04:48:53;;;;;;;7.15;5.28;;;;;;;-1.21;78.30;97139.31;1758896;79;20932;-62
2021/01/26 04:51:27;;;;;;;6.65;5.55;;;;;;;-1.25;78.21;97142.98;1797843;79;20916;-62
2021/01/26 04:54:31;;;;;;;5.30;4.80;;;;;;;-1.27;78.26;97147.47;1798012;79;20917;-62
2021/01/26 04:57:36;;;;;;;7.75;6.30;;;;;;;-1.28;77.98;97148.38;1842324;78;28483;-62
2021/01/26 05:00:42;;;;;;;6.70;5.33;;;;;;;-1.33;78.12;97158.26;1817677;79;21334;-62
2021/01/26 05:03:49;;;;;;;5.50;4.75;;;;;;;-1.35;78.00;97157.48;1817530;78;21190;-62
2021/01/26 05:06:18;;;;;;;6.17;5.53;;;;;;;-1.33;78.11;97167.48;1745019;82;21042;-64
2021/01/26 05:08:50;;;;;;;5.75;4.55;;;;;;;-1.31;78.34;97166.94;1806742;79;20936;-62
2021/01/26 05:11:24;;;;;;;6.35;5.30;;;;;;;-1.32;78.22;97159.98;1817717;78;20979;-62
2021/01/26 05:13:59;;;;;;;6.08;4.87;;;;;;;-1.30;78.23;97163.40;1817616;79;20959;-62
2021/01/26 05:16:45;;;;;;;6.92;5.87;;;;;;;-1.23;78.10;97171.90;1842291;78;28405;-61
2021/01/26 05:19:20;;;;;;;6.03;4.75;;;;;;;-1.24;77.92;97171.05;1817662;79;21450;-62
2021/01/26 05:22:02;;;;;;;5.70;4.92;;;;;;;-1.21;77.80;97176.20;1817864;79;22271;-63
2021/01/26 05:24:50;;;;;;;5.92;4.55;;;;;;;-1.19;77.72;97173.03;1779510;79;20952;-63
2021/01/26 05:27:18;;;;;;;8.70;5.22;;;;;;;-1.14;77.69;97180.27;1817215;79;20979;-62
2021/01/26 05:29:45;;;;;;;8.40;5.75;;;;;;;-1.10;77.46;97182.34;1817513;79;20916;-63
2021/01/26 05:32:13;;;;;;;7.62;5.40;;;;;;;-1.07;77.25;97187.92;1817673;78;20901;-63
2021/01/26 05:34:41;;;;;;;7.35;5.50;;;;;;;-1.05;77.03;97182.14;1778880;79;21395;-62
2021/01/26 05:37:14;;;;;;;5.25;4.47;;;;;;;-1.00;76.78;97201.25;1817559;78;20984;-63
2021/01/26 05:39:54;;;;;;;7.97;4.00;;;;;;;-0.99;76.29;97189.80;1817556;79;21350;-63
2021/01/26 05:42:22;;;;;;;5.95;4.70;;;;;;;-0.96;75.71;97216.02;1817538;79;20917;-61
2021/01/26 05:44:53;;;;;;;6.15;4.70;;;;;;;-0.95;75.47;97205.86;1817545;79;20983;-63
2021/01/26 05:47:26;;;;;;;6.05;4.83;;;;;;;-0.92;75.56;97221.55;1817725;78;22272;-62
2021/01/26 05:49:54;;;;;;;5.65;4.55;;;;;;;-0.93;75.11;97222.45;1817737;78;20916;-62
2021/01/26 05:52:39;;;;;;;5.70;4.47;;;;;;;-0.92;74.74;97232.94;1817620;79;20912;-63
2021/01/26 05:55:24;;;;;;;4.35;3.62;;;;;;;-0.89;74.55;97228.01;1817402;78;20973;-63
2021/01/26 05:57:52;;;;;;;4.47;3.98;;;;;;;-0.88;74.23;97243.36;1785896;79;20912;-63
2021/01/26 06:00:25;;;;;;;4.12;3.58;;;;;;;-0.89;73.92;97242.51;1817471;78;21189;-62
2021/01/26 06:03:18;;;;;;;4.87;4.08;;;;;;;-0.90;74.01;97256.59;1817699;79;20916;-62
2021/01/26 06:06:18;;;;;;;4.30;3.90;;;;;;;-0.87;74.00;97252.52;1807395;79;20904;-62
2021/01/26 06:08:56;;;;;;;4.12;3.50;;;;;;;-0.86;73.99;97256.87;1817470;79;20995;-63
2021/01/26 06:11:29;;;;;;;5.10;3.12;;;;;;;-0.85;73.68;97257.73;1817598;79;20908;-63
2021/01/26 06:14:09;;;;;;;5.53;3.40;;;;;;;-0.82;73.33;97266.39;1817682;79;21400;-64
2021/01/26 06:16:37;;;;;;;4.20;3.40;;;;;;;-0.81;73.02;97261.48;1807506;78;21016;-63
2021/01/26 06:19:05;;;;;;;5.25;3.42;;;;;;;-0.79;73.11;97276.80;1806341;79;21014;-62
2021/01/26 06:21:51;;;;;;;5.47;3.80;;;;;;;-0.77;73.26;97274.95;1806427;79;20924;-62
2021/01/26 06:24:22;;;;;;;6.00;4.40;;;;;;;-0.77;72.72;97269.68;1806515;79;20988;-63
2021/01/26 06:27:30;;;;;;;5.60;4.00;;;;;;;-0.77;72.56;97271.00;1806042;79;21367;-62
2021/01/26 06:30:27;;;;;;;5.53;4.12;;;;;;;-0.71;72.73;97276.93;1805765;79;21020;-62
2021/01/26 06:33:35;;;;;;;5.35;4.17;;;;;;;-0.70;72.28;97279.97;1736663;82;20910;-63
2021/01/26 06:36:27;;;;;;;5.00;4.50;;;;;;;-0.68;72.09;97278.97;1805837;79;20874;-63
2021/01/26 06:39:17;;;;;;;4.80;3.52;;;;;;;-0.68;72.05;97278.97;1805861;79;20901;-62
2021/01/26 06:42:18;;;;;;;5.22;4.28;;;;;;;-0.65;72.30;97280.16;1773113;79;21467;-62
2021/01/26 06:45:33;;;;;;;5.53;4.50;;;;;;;-0.63;72.24;97297.23;1805861;79;20928;-62
2021/01/26 06:48:29;;;;;;;5.85;5.22;;;;;;;-0.63;72.25;97293.28;1805903;79;20933;-59
2021/01/26 06:51:14;;;;;;;5.78;4.90;;;;;;;-0.62;72.55;97298.96;1805215;79;20940;-62
2021/01/26 06:53:58;;;;;;;5.55;4.83;;;;;;;-0.58;72.87;97299.24;1805831;79;20913;-62
2021/01/26 06:56:52;;;;;;;6.17;4.80;;;;;;;-0.58;72.72;97309.80;1805793;79;21359;-62
2021/01/26 06:59:42;;;;;;;7.15;5.97;;;;;;;-0.56;72.60;97309.25;1805710;79;20952;-63
2021/01/26 07:03:01;;;;;;;8.58;5.42;;;;;;;-0.56;72.77;97308.78;1805758;79;20984;-62
2021/01/26 07:05:41;;;;;;;7.80;6.42;;;;;;;-0.53;72.97;97314.41;1805765;79;20929;-64
2021/01/26 07:08:20;;;;;;;7.05;5.90;;;;;;;-0.49;73.13;97325.67;1805506;79;20972;-63
2021/01/26 07:11:11;;;;;;;8.30;6.28;;;;;;;-0.46;73.31;97318.48;1805740;79;21327;-63
2021/01/26 07:13:53;;;;;;;5.92;5.08;;;;;;;-0.45;72.90;97326.80;1779462;79;20941;-63
2021/01/26 07:16:54;;;;;;;7.00;6.08;;;;;;;-0.41;72.97;97336.31;1805696;79;20961;-63
2021/01/26 07:19:43;;;;;;;8.23;6.35;;;;;;;-0.38;72.98;97338.83;1805666;79;20921;-70
2021/01/26 07:22:35;;;;;;;8.58;6.47;;;;;;;-0.34;72.77;97342.19;1805794;79;21012;-62
2021/01/26 07:25:29;;;;;;;8.88;6.95;;;;;;;-0.31;72.66;97341.20;1805803;79;21143;-63
2021/01/26 07:28:14;;;;;;;10.50;7.22;;;;;;;-0.27;72.80;97348.05;1805907;79;21000;-62
2021/01/26 07:31:19;;;;;;;7.03;6.30;;;;;;;-0.24;72.80;97354.05;1795066;79;20917;-64
2021/01/26 07:34:09;;;;;;;6.67;5.28;;;;;;;-0.21;72.01;97353.06;1805744;79;21000;-63
2021/01/26 07:36:40;;;;;;;9.30;6.92;;;;;;;-0.20;72.15;97354.80;1805823;79;20861;-62
2021/01/26 07:39:34;;;;;;;8.10;6.50;;;;;;;-0.16;72.02;97352.88;1805684;79;21482;-65
2021/01/26 07:42:20;;;;;;;7.67;6.67;;;;;;;-0.15;71.68;97359.41;1805744;79;20921;-63
2021/01/26 07:45:08;;;;;;;7.25;5.83;;;;;;;-0.10;71.76;97367.97;1805868;79;21441;-63
2021/01/26 07:47:40;;;;;;;8.20;6.22;;;;;;;-0.07;71.43;97358.60;1805725;79;21019;-62
2021/01/26 07:50:36;;;;;;;8.70;6.40;;;;;;;-0.08;71.12;97362.19;1805751;79;20921;-64
2021/01/26 07:53:31;;;;;;;8.40;5.90;;;;;;;-0.08;70.96;97370.11;1805789;79;21200;-62
2021/01/26 07:56:22;;;;;;;7.20;6.08;;;;;;;-0.03;71.08;97376.52;1805603;79;20991;-62
2021/01/26 07:58:50;;;;;;;9.13;7.12;;;;;;;-0.05;70.61;97372.62;1805737;79;20996;-63
2021/01/26 08:01:19;;;;;;;8.78;6.47;;;;;;;-0.01;70.59;97376.82;1805700;79;20984;-62
2021/01/26 08:03:47;;;;;;;7.97;6.17;;;;;;;0.02;70.50;97386.41;1805851;79;20999;-63
2021/01/26 08:06:40;;;;;;;8.55;6.83;;;;;;;0.05;70.27;97378.80;1805741;79;21522;-61
2021/01/26 08:09:18;;;;;;;7.83;7.03;;;;;;;0.07;70.07;97388.84;1805769;79;21004;-62
2021/01/26 08:12:10;;;;;;;8.10;6.03;;;;;;;0.08;69.96;97392.74;1805819;79;21454;-61
2021/01/26 08:14:49;;;;;;;8.58;6.37;;;;;;;0.12;69.97;97390.81;1805673;79;20969;-61
2021/01/26 08:17:34;;;;;;;8.18;6.15;;;;;;;0.16;69.98;97397.70;1805810;79;21442;-62
2021/01/26 08:20:30;;;;;;;9.58;6.83;;;;;;;0.21;69.77;97403.63;1805640;79;23806;-67
2021/01/26 08:23:07;;;;;;;7.65;5.60;;;;;;;0.27;69.66;97409.96;1805672;79;20933;-64
2021/01/26 08:25:38;;;;;;;10.58;7.42;;;;;;;0.31;69.67;97398.79;1805564;79;21334;-63
2021/01/26 08:28:41;;;;;;;8.73;6.75;;;;;;;0.36;69.49;97400.76;1805383;79;20972;-63
2021/01/26 08:31:33;;;;;;;8.18;6.55;;;;;;;0.37;69.10;97401.64;1804990;79;20940;-63
2021/01/26 08:34:25;;;;;;;7.65;6.05;;;;;;;0.44;69.14;97408.34;1805694;79;21376;-61
2021/01/26 08:37:14;;;;;;;8.93;7.25;;;;;;;0.50;69.09;97413.36;1764415;79;20929;-62
2021/01/26 08:39:44;;;;;;;11.75;7.33;;;;;;;0.55;68.70;97419.28;1787587;79;21055;-62
2021/01/26 08:42:47;;;;;;;8.87;6.67;;;;;;;0.63;68.77;97418.95;1805902;79;20881;-62
2021/01/26 08:45:29;;;;;;;7.35;5.95;;;;;;;0.67;67.95;97426.67;1805722;79;20905;-60
2021/01/26 08:48:12;;;;;;;9.65;7.15;;;;;;;0.76;68.08;97427.17;1805743;79;21421;-65
2021/01/26 08:50:52;;;;;;;16.37;12.78;;;;;;;0.81;68.94;97424.73;1781539;79;20976;-61
2021/01/26 08:53:25;;;;;;;9.48;7.92;;;;;;;0.83;67.91;97425.50;1805732;79;20972;-64
2021/01/26 08:56:26;;;;;;;10.18;7.22;;;;;;;0.87;67.40;97432.38;1805019;79;20920;-63
2021/01/26 08:58:57;;;;;;;11.60;8.25;;;;;;;0.94;67.45;97426.34;1805716;79;20901;-63
2021/01/26 09:01:40;;;;;;;7.92;6.00;;;;;;;1.00;67.71;97444.57;1805898;79;21194;-63
2021/01/26 09:04:18;;;;;;;8.78;7.12;;;;;;;1.13;67.46;97441.36;1805732;79;21372;-64
2021/01/26 09:06:48;;;;;;;8.38;6.40;;;;;;;1.21;67.27;97448.47;1805733;79;20913;-62
2021/01/26 09:09:33;;;;;;;9.85;7.58;;;;;;;1.27;66.25;97454.80;1805740;79;20936;-63
2021/01/26 09:12:05;;;;;;;8.88;7.05;;;;;;;1.27;66.03;97453.47;1805787;79;20977;-62
2021/01/26 09:14:50;;;;;;;10.00;7.60;;;;;;;1.22;66.12;97452.84;1781542;79;21186;-64
2021/01/26 09:17:27;;;;;;;7.87;6.20;;;;;;;1.20;67.00;97462.17;1805607;79;20929;-62
2021/01/26 09:20:14;;;;;;;7.80;6.40;;;;;;;1.18;67.62;97455.22;1805714;79;20901;-64
2021/01/26 09:22:44;;;;;;;8.33;6.75;;;;;;;1.21;68.43;97465.66;1805719;79;20932;-64
2021/01/26 09:25:20;;;;;;;8.80;6.85;;;;;;;1.17;69.21;97463.63;1805700;79;20913;-62
2021/01/26 09:28:07;;;;;;;8.83;7.15;;;;;;;1.17;69.53;97460.14;1805711;79;22059;-64
2021/01/26 09:30:37;;;;;;;8.45;6.17;;;;;;;1.14;70.05;97458.95;1805722;79;20949;-63
2021/01/26 09:33:18;;;;;;;9.15;7.70;;;;;;;1.14;70.34;97464.25;1805730;79;20932;-64
2021/01/26 09:36:08;;;;;;;9.20;7.80;;;;;;;1.14;70.54;97462.45;1803088;79;20921;-63
2021/01/26 09:38:41;;;;;;;7.45;6.05;;;;;;;1.16;70.65;97461.05;1805826;79;21331;-62
2021/01/26 09:41:20;;;;;;;10.28;7.10;;;;;;;1.25;70.37;97460.63;1805872;79;21360;-63
2021/01/26 09:43:54;;;;;;;8.13;6.47;;;;;;;1.30;69.70;97459.94;1805762;79;21449;-66
2021/01/26 09:46:28;;;;;;;9.73;7.25;;;;;;;1.36;68.81;97455.69;1805689;79;20877;-64
2021/01/26 09:49:27;;;;;;;;;;;;;;;1.47;67.95;97467.53;1808301;79;20928;-63
2021/01/26 09:52:09;;;;;;;7.92;6.97;;;;;;;1.53;66.88;97473.86;1781715;79;20149;-63
2021/01/26 09:54:39;;;;;;;6.72;6.03;;;;;;;1.52;65.69;97472.16;1805730;79;21338;-64
2021/01/26 09:57:10;;;;;;;8.20;6.47;;;;;;;1.58;66.04;97465.25;1805616;79;21015;-65
2021/01/26 09:59:39;;;;;;;7.53;5.75;;;;;;;1.61;65.34;97468.61;1805025;79;21003;-64
2021/01/26 10:02:09;;;;;;;7.92;5.42;;;;;;;1.69;65.30;97480.15;1805739;79;20862;-63
2021/01/26 10:04:40;;;;;;;6.58;5.50;;;;;;;1.69;64.16;97470.88;1805888;79;20976;-65
2021/01/26 10:07:14;;;;;;;8.40;5.87;;;;;;;1.74;64.30;97468.86;1803815;79;21126;-63
2021/01/26 10:09:43;;;;;;;6.65;5.30;;;;;;;1.77;63.84;97476.66;1805841;79;21481;-62
2021/01/26 10:12:28;;;;;;;7.33;5.92;;;;;;;1.83;63.41;97468.02;1805509;79;20932;-64
2021/01/26 10:15:27;;;;;;;7.17;6.05;;;;;;;1.87;63.48;97474.89;1805659;78;21051;-64
2021/01/26 10:18:21;;;;;;;7.35;6.45;;;;;;;1.87;63.28;97489.45;1814024;79;21329;-64
2021/01/26 10:21:06;;;;;;;8.30;6.50;;;;;;;1.86;63.59;97482.43;1814900;79;21423;-63
2021/01/26 10:23:39;;;;;;;7.15;6.08;;;;;;;1.82;63.35;97490.16;1814943;79;20928;-64
2021/01/26 10:26:23;;;;;;;7.22;5.00;;;;;;;1.79;63.43;97497.29;1814972;79;20971;-64
2021/01/26 10:29:14;;;;;;;10.08;7.40;;;;;;;1.73;63.41;97487.00;1814880;79;20975;-64
2021/01/26 10:31:55;;;;;;;6.87;5.85;;;;;;;1.72;64.39;97497.21;1808005;79;20916;-64
2021/01/26 10:34:40;;;;;;;7.42;5.85;;;;;;;1.66;64.60;97506.77;1814938;79;21180;-65
2021/01/26 10:37:25;;;;;;;7.62;6.78;;;;;;;1.61;64.35;97506.14;1814845;79;21011;-64
2021/01/26 10:40:33;;;;;;;7.17;6.03;;;;;;;1.55;65.35;97496.69;1814941;79;20909;-65
2021/01/26 10:43:12;;;;;;;8.18;7.03;;;;;;;1.57;65.44;97507.20;1814972;79;20929;-63
2021/01/26 10:45:53;;;;;;;9.50;7.17;;;;;;;1.56;65.81;97520.03;1814988;79;20964;-63
2021/01/26 10:48:34;;;;;;;8.37;6.57;;;;;;;1.58;65.95;97506.28;1815247;79;21528;-63
2021/01/26 10:51:16;;;;;;;9.15;6.97;;;;;;;1.61;66.26;97507.46;1814930;79;20936;-64
2021/01/26 10:53:47;;;;;;;7.75;6.60;;;;;;;1.66;66.34;97504.12;1815044;79;21319;-63
2021/01/26 10:56:15;;;;;;;6.78;5.95;;;;;;;1.70;65.62;97505.67;1814826;79;20905;-64
2021/01/26 10:58:44;;;;;;;9.35;7.47;;;;;;;1.74;65.07;97495.34;1814901;79;20916;-64
2021/01/26 11:01:19;;;;;;;7.78;6.10;;;;;;;1.76;65.44;97512.47;1814978;79;21405;-63
2021/01/26 11:03:48;;;;;;;8.20;6.45;;;;;;;1.80;65.65;97496.84;1815037;79;21007;-64
2021/01/26 11:06:20;;;;;;;8.35;5.83;;;;;;;1.87;65.79;97500.05;1814904;79;21019;-63
2021/01/26 11:08:48;;;;;;;6.17;5.55;;;;;;;1.89;64.61;97509.64;1814998;79;21015;-64
2021/01/26 11:11:16;;;;;;;7.87;6.55;;;;;;;1.93;64.58;97500.59;1814951;79;21357;-63
2021/01/26 11:13:47;;;;;;;8.65;6.12;;;;;;;1.95;64.92;97507.14;1815030;79;22261;-63
2021/01/26 11:16:14;;;;;;;6.90;5.90;;;;;;;1.98;64.89;97513.14;1815322;78;20957;-64
2021/01/26 11:18:44;;;;;;;7.05;6.10;;;;;;;1.99;64.67;97513.55;1828722;78;20912;-64
2021/01/26 11:21:14;;;;;;;8.58;5.85;;;;;;;2.02;64.51;97500.63;1828751;78;20904;-63
2021/01/26 11:23:42;;;;;;;7.03;4.95;;;;;;;1.99;64.15;97505.59;1828754;78;20876;-63
2021/01/26 11:26:14;;;;;;;6.08;5.40;;;;;;;1.96;63.20;97512.37;1828770;78;21617;-63
2021/01/26 11:28:42;;;;;;;6.72;4.90;;;;;;;1.97;63.15;97513.21;1828674;78;20994;-63
2021/01/26 11:31:09;;;;;;;8.28;5.60;;;;;;;1.93;63.18;97516.48;1828841;78;21441;-64
2021/01/26 11:33:37;;;;;;;6.72;5.87;;;;;;;1.93;63.67;97512.52;1828714;78;20873;-63
2021/01/26 11:36:07;;;;;;;6.37;5.45;;;;;;;1.91;63.60;97518.36;1828801;78;21429;-64
2021/01/26 11:38:34;;;;;;;5.67;4.67;;;;;;;1.91;63.41;97516.19;1828742;78;21357;-64
2021/01/26 11:41:02;;;;;;;5.67;4.53;;;;;;;1.90;63.12;97529.03;1828706;78;20978;-64
2021/01/26 11:43:32;;;;;;;6.10;5.22;;;;;;;1.91;63.39;97521.48;1828807;78;20975;-63
2021/01/26 11:46:01;;;;;;;7.67;6.17;;;;;;;1.92;63.36;97524.50;1828786;78;21416;-64
2021/01/26 11:48:29;;;;;;;7.25;5.75;;;;;;;1.84;63.12;97514.76;1828687;78;20963;-64
2021/01/26 11:50:59;;;;;;;5.80;4.92;;;;;;;1.88;63.16;97520.31;1828742;78;21414;-65
2021/01/26 11:53:28;;;;;;;6.58;5.10;;;;;;;1.90;63.43;97519.76;1828631;78;21035;-64
2021/01/26 11:55:59;;;;;;;5.80;5.08;;;;;;;1.89;63.02;97520.68;1828704;78;20927;-63
2021/01/26 11:58:28;;;;;;;7.67;5.50;;;;;;;1.93;62.38;97525.75;1828858;78;21034;-64
2021/01/26 12:00:56;;;;;;;7.60;5.72;;;;;;;1.92;62.38;97517.88;1828682;78;20954;-63
2021/01/26 12:03:24;;;;;;;6.45;5.40;;;;;;;1.94;62.25;97514.69;1828751;78;21182;-63
2021/01/26 12:05:53;;;;;;;5.92;4.53;;;;;;;1.97;61.95;97519.83;1828647;78;20895;-63
2021/01/26 12:08:20;;;;;;;8.40;5.50;;;;;;;1.99;61.68;97516.67;1828736;78;20959;-63
2021/01/26 12:10:50;;;;;;;7.12;5.78;;;;;;;2.00;61.34;97518.36;1828585;78;20975;-64
2021/01/26 12:13:18;;;;;;;5.53;4.35;;;;;;;2.02;61.85;97516.52;1828736;78;20920;-64
2021/01/26 12:15:47;;;;;;;5.60;4.70;;;;;;;2.03;60.80;97510.27;1828727;78;21374;-63
2021/01/26 12:18:14;;;;;;;7.83;5.67;;;;;;;2.06;61.31;97511.44;1818307;78;20917;-65
2021/01/26 12:20:44;;;;;;;7.00;5.25;;;;;;;2.06;60.75;97512.77;1814926;79;21432;-65
2021/01/26 12:23:11;;;;;;;5.58;4.70;;;;;;;2.05;60.52;97516.37;1814799;79;20976;-64
2021/01/26 12:25:43;;;;;;;6.42;4.70;;;;;;;2.08;60.87;97516.22;1814832;79;21003;-64
2021/01/26 12:28:09;;;;;;;4.87;4.30;;;;;;;2.08;60.52;97509.59;1814662;79;21366;-63
2021/01/26 12:30:36;;;;;;;4.97;4.33;;;;;;;2.07;60.41;97514.49;1814774;79;20936;-64